| Record Date MM/DD/YYYY | Record Time HH:MM:SS | Record Julian Date NNN day of the year | Air Temperature Max (Degrees Fahrenheit F) | Time Max Air Temperature HH:MM:SS This is the time of max air temp for the prior hour interval listed for record [Time]. | Air Temperature Min (Degrees Fahrenheit F) | Time Min Air Temperature HH:MM:SS This is the time of min air temp for the prior hour interval listed for record [Time]. | Air Temperature Observed (Degrees Fahrenheit F) This is an instantaneous reading at the record [Time]. | Relative Humidity Max (Percent) | Time Max Relative Humidity HH:MM:SS This is the time of max relative humidity for the prior hour interval listed for record [Time]. | Relative Humidity Min (Percent) | Time Min Relative Humidity HH:MM:SS This is the time of min relative humidity for the prior hour interval listed for record [Time]. | Relative Humidity Observed (Percent) This is an instantaneous reading at the record [Time]. | Precipitation (Inches n.nn) rain fall that occurred during the prior hour interval listed for record [Time]. | Wind Speed (Miles Per Hour) Resultant Speed that occurred during the prior hour interval listed for record [Time]. | Wind Direction (Degrees) Resultant Direction that occurred during the prior hour interval listed for record [Time]. | Solar Radiation (Langley's) that occurred during the prior hour interval listed for record [Time]. | Soil Temperature Average at 2 inch depth (Degrees Fahrenheit F) that occurred during the prior hour interval listed for record [Time]. | Soil Temperature Observed at 2 inch depth (Degrees Fahrenheit F) This is an instantaneous reading at the record [Time]. | Soil Temperature Average at 4 inch depth (Degrees Fahrenheit F) that occurred during the prior hour interval listed for record [Time]. | Soil Temperature Observed at 4 inch depth (Degrees Fahrenheit F) This is an instantaneous reading at the record [Time]. |
|---|---|---|---|---|---|---|---|---|---|---|---|---|---|---|---|---|---|---|---|---|
| 08/30/2026 | 0:00:00 | 242 | 73 | 23:00:01 | 71 | 23:28:04 | 72 | 87 | 23:30:04 | 80 | 23:01:04 | 82.7 | 0 | 0.2 | 342 | 0 | 84 | 84 | 85 | 85 |
| 08/30/2026 | 1:00:00 | 242 | 72 | 0:21:05 | 72 | 0:54:01 | 72 | 84 | 0:57:03 | 80 | 0:18:03 | 82 | 0 | 0.1 | 45 | 0 | 83 | 83 | 85 | 84 |
| 08/30/2026 | 2:00:00 | 242 | 72 | 1:08:00 | 71 | 1:59:00 | 71 | 89 | 1:55:05 | 78 | 1:10:03 | 86.2 | 0 | 0.2 | 33 | 0 | 83 | 83 | 84 | 84 |
| 08/30/2026 | 3:00:00 | 242 | 72 | 2:14:00 | 71 | 2:31:02 | 71 | 91 | 2:25:01 | 82 | 2:11:01 | 87.1 | 0 | 1.1 | 10 | 0 | 83 | 82 | 84 | 84 |
| 08/30/2026 | 4:00:00 | 242 | 72 | 3:10:04 | 71 | 3:27:00 | 72 | 90 | 3:26:03 | 83 | 3:13:05 | 87.1 | 0 | 0.9 | 54 | 0 | 82 | 82 | 83 | 83 |
| 08/30/2026 | 5:00:00 | 242 | 72 | 4:00:02 | 71 | 4:19:00 | 71 | 90 | 4:48:04 | 87 | 4:06:05 | 89.5 | 0 | 0.3 | 53 | 0 | 82 | 82 | 83 | 83 |
| 08/30/2026 | 6:00:00 | 242 | 73 | 5:59:05 | 71 | 5:08:04 | 73 | 91 | 5:18:03 | 87 | 6:00:00 | 87.1 | 0 | 1.6 | 113 | 0 | 82 | 81 | 83 | 83 |
| 08/30/2026 | 7:00:00 | 242 | 79 | 7:00:00 | 73 | 6:00:00 | 79 | 87 | 6:00:00 | 81 | 6:59:05 | 81.1 | 0 | 3.3 | 133 | 9 | 81 | 81 | 82 | 82 |
| 08/30/2026 | 8:00:00 | 242 | 85 | 8:00:00 | 79 | 7:00:00 | 85 | 81 | 7:00:01 | 74 | 7:57:00 | 74.18 | 0 | 3.7 | 169 | 28 | 82 | 82 | 82 | 82 |
| 08/30/2026 | 9:00:00 | 242 | 88 | 8:59:04 | 84 | 8:24:01 | 88 | 77 | 8:24:03 | 67 | 8:49:01 | 68.41 | 0 | 4.5 | 194 | 42 | 83 | 83 | 83 | 83 |
| 08/30/2026 | 10:00:00 | 242 | 91 | 9:59:03 | 88 | 9:01:04 | 91 | 71 | 9:05:01 | 60 | 9:51:05 | 60.63 | 0 | 4.3 | 169 | 55 | 84 | 85 | 83 | 84 |
| 08/30/2026 | 11:00:00 | 242 | 94 | 10:57:01 | 91 | 10:08:02 | 94 | 63 | 10:08:03 | 52 | 10:54:04 | 53.17 | 0 | 4.4 | 154 | 67 | 86 | 87 | 84 | 85 |
| 08/30/2026 | 12:00:00 | 242 | 96 | 11:26:05 | 92 | 11:46:01 | 94 | 57 | 11:10:05 | 47 | 11:31:04 | 53.26 | 0 | 4.2 | 124 | 62 | 88 | 89 | 86 | 86 |
| 08/30/2026 | 13:00:00 | 242 | 97 | 12:39:02 | 92 | 12:02:02 | 94 | 57 | 12:03:00 | 46 | 12:39:01 | 50.21 | 0 | 3.7 | 136 | 59 | 89 | 90 | 87 | 87 |
| 08/30/2026 | 14:00:00 | 242 | 99 | 13:20:03 | 94 | 13:00:04 | 97 | 54 | 13:01:05 | 41 | 13:57:05 | 43.32 | 0 | 3.6 | 109 | 60 | 90 | 90 | 88 | 88 |
| 08/30/2026 | 15:00:00 | 242 | 99 | 14:18:01 | 95 | 14:08:03 | 96 | 47 | 14:09:02 | 41 | 14:18:02 | 46.15 | 0 | 4.1 | 118 | 49 | 91 | 91 | 89 | 89 |
| 08/30/2026 | 16:00:00 | 242 | 96 | 15:04:03 | 94 | 15:59:01 | 94 | 50 | 15:59:01 | 44 | 15:10:01 | 49.07 | 0 | 4.4 | 121 | 16 | 91 | 90 | 89 | 89 |
| 08/30/2026 | 17:00:00 | 242 | 96 | 16:47:00 | 94 | 16:25:04 | 94 | 51 | 16:17:05 | 46 | 16:48:00 | 49.53 | 0 | 4.1 | 121 | 13 | 90 | 90 | 89 | 89 |
| 08/30/2026 | 18:00:00 | 242 | 96 | 17:18:03 | 92 | 17:59:05 | 92 | 53 | 17:54:05 | 46 | 17:18:05 | 52.49 | 0 | 4.7 | 124 | 10 | 89 | 89 | 89 | 89 |
| 08/30/2026 | 19:00:00 | 242 | 92 | 18:00:00 | 88 | 19:00:00 | 88 | 60 | 18:58:01 | 53 | 18:00:00 | 59.75 | 0 | 3.1 | 118 | 1 | 89 | 88 | 88 | 88 |
| 08/30/2026 | 20:00:00 | 242 | 88 | 19:00:01 | 86 | 20:00:00 | 86 | 64 | 19:58:04 | 60 | 19:03:03 | 64.35 | 0 | 2.4 | 116 | 0 | 88 | 87 | 88 | 88 |
| 08/30/2026 | 21:00:00 | 242 | 86 | 20:01:04 | 83 | 20:45:00 | 83 | 72 | 20:44:03 | 64 | 20:00:05 | 70.27 | 0 | 2.1 | 102 | 0 | 87 | 87 | 87 | 87 |
| 08/30/2026 | 22:00:00 | 242 | 83 | 21:00:00 | 82 | 21:35:00 | 82 | 75 | 21:33:05 | 70 | 21:01:01 | 73.34 | 0 | 1.9 | 103 | 0 | 86 | 86 | 87 | 87 |
| 08/30/2026 | 23:00:00 | 242 | 82 | 22:00:00 | 80 | 22:59:03 | 80 | 78 | 22:59:00 | 73 | 22:00:01 | 77.6 | 0 | 2.2 | 114 | 0 | 86 | 85 | 86 | 86 |
| 08/31/2026 | 0:00:00 | 243 | 80 | 23:01:04 | 78 | 23:55:02 | 78 | 86 | 23:54:00 | 78 | 23:00:01 | 84.9 | 0 | 0.5 | 112 | 0 | 85 | 85 | 86 | 86 |
| 08/31/2026 | 1:00:00 | 243 | 79 | 0:12:04 | 78 | 0:59:05 | 78 | 86 | 1:00:00 | 83 | 0:09:04 | 85.9 | 0 | 1.3 | 138 | 0 | 85 | 85 | 86 | 85 |
| 08/31/2026 | 2:00:00 | 243 | 78 | 1:47:05 | 77 | 1:05:03 | 78 | 87 | 1:09:03 | 85 | 1:46:02 | 85.2 | 0 | 1.8 | 138 | 0 | 84 | 84 | 85 | 85 |
| 08/31/2026 | 3:00:00 | 243 | 78 | 2:02:03 | 76 | 2:33:02 | 77 | 91 | 2:35:03 | 85 | 2:00:01 | 88.1 | 0 | 1.6 | 131 | 0 | 84 | 84 | 85 | 85 |
| 08/31/2026 | 4:00:00 | 243 | 77 | 3:00:01 | 76 | 3:59:05 | 76 | 91 | 3:59:00 | 88 | 3:17:02 | 91.3 | 0 | 1.8 | 127 | 0 | 84 | 83 | 84 | 84 |
| 08/31/2026 | 5:00:00 | 243 | 76 | 4:34:04 | 75 | 4:21:05 | 76 | 93 | 4:25:03 | 91 | 4:00:00 | 92.5 | 0 | 0.6 | 102 | 0 | 83 | 83 | 84 | 84 |
| 08/31/2026 | 6:00:00 | 243 | 76 | 5:00:03 | 74 | 5:46:04 | 74 | 96 | 5:54:02 | 92 | 5:01:04 | 95.2 | 0 | 0.2 | 82 | 0 | 83 | 83 | 84 | 84 |
| 08/31/2026 | 7:00:00 | 243 | 82 | 6:58:05 | 74 | 6:01:02 | 82 | 96 | 6:06:05 | 80 | 6:59:03 | 80.5 | 0 | 1.7 | 116 | 9 | 83 | 83 | 84 | 83 |
| 08/31/2026 | 8:00:00 | 243 | 88 | 7:47:00 | 82 | 7:00:00 | 87 | 81 | 7:00:04 | 69 | 7:47:02 | 70.65 | 0 | 2.0 | 139 | 27 | 83 | 83 | 83 | 84 |
| 08/31/2026 | 9:00:00 | 243 | 90 | 8:49:00 | 87 | 8:06:05 | 90 | 72 | 8:31:04 | 61 | 8:53:02 | 62.75 | 0 | 2.5 | 240 | 42 | 84 | 85 | 84 | 84 |
| 08/31/2026 | 10:00:00 | 243 | 94 | 9:55:04 | 89 | 9:04:00 | 93 | 64 | 9:02:03 | 52 | 9:49:01 | 53.38 | 0 | 3.1 | 174 | 56 | 86 | 87 | 85 | 85 |
| 08/31/2026 | 11:00:00 | 243 | 96 | 10:50:05 | 93 | 10:29:01 | 95 | 58 | 10:34:00 | 45 | 10:50:05 | 47.85 | 0 | 3.7 | 161 | 69 | 88 | 88 | 86 | 86 |
| 08/31/2026 | 12:00:00 | 243 | 97 | 11:49:04 | 94 | 11:43:03 | 96 | 53 | 11:02:04 | 42 | 11:38:01 | 47.66 | 0 | 4.1 | 167 | 72 | 89 | 90 | 87 | 87 |
| 08/31/2026 | 13:00:00 | 243 | 99 | 12:55:02 | 95 | 12:27:03 | 99 | 51 | 12:32:01 | 42 | 12:55:03 | 44.22 | 0 | 4.0 | 199 | 76 | 91 | 92 | 88 | 89 |
| 08/31/2026 | 14:00:00 | 243 | 100 | 13:54:04 | 96 | 13:17:01 | 98 | 48 | 13:19:04 | 41 | 13:47:00 | 43.84 | 0 | 4.5 | 161 | 63 | 92 | 93 | 89 | 90 |
| 08/31/2026 | 15:00:00 | 243 | 101 | 14:23:03 | 97 | 14:10:03 | 98 | 46 | 14:17:02 | 39 | 14:23:05 | 43.07 | 0 | 4.0 | 145 | 38 | 93 | 92 | 90 | 90 |
| 08/31/2026 | 16:00:00 | 243 | 100 | 15:22:05 | 96 | 15:42:00 | 100 | 45 | 15:02:00 | 39 | 15:23:04 | 41.56 | 0 | 4.8 | 143 | 38 | 92 | 92 | 91 | 91 |
| 08/31/2026 | 17:00:00 | 243 | 100 | 16:34:03 | 98 | 16:16:04 | 99 | 45 | 16:22:00 | 40 | 16:35:01 | 41.57 | 0 | 4.5 | 123 | 27 | 92 | 92 | 91 | 90 |
| 08/31/2026 | 18:00:00 | 243 | 99 | 17:00:01 | 95 | 18:00:00 | 95 | 48 | 17:59:04 | 42 | 17:00:05 | 47.89 | 0 | 3.7 | 117 | 10 | 91 | 91 | 90 | 90 |
| 08/31/2026 | 19:00:00 | 243 | 95 | 18:00:01 | 90 | 18:59:05 | 90 | 58 | 18:59:02 | 48 | 18:00:00 | 57.31 | 0 | 2.8 | 121 | 1 | 90 | 90 | 90 | 90 |
| 08/31/2026 | 20:00:00 | 243 | 90 | 19:00:01 | 89 | 19:44:02 | 89 | 62 | 19:43:01 | 57 | 19:00:00 | 61.04 | 0 | 2.7 | 119 | 0 | 89 | 89 | 89 | 89 |
| 08/31/2026 | 21:00:00 | 243 | 89 | 20:00:00 | 87 | 20:59:05 | 87 | 65 | 20:18:03 | 61 | 20:00:05 | 64.4 | 0 | 3.0 | 120 | 0 | 89 | 88 | 89 | 89 |
| 08/31/2026 | 22:00:00 | 243 | 87 | 21:00:01 | 83 | 21:48:01 | 84 | 73 | 21:46:00 | 64 | 21:00:00 | 70.66 | 0 | 2.0 | 103 | 0 | 88 | 88 | 88 | 88 |
| 08/31/2026 | 23:00:00 | 243 | 85 | 22:38:00 | 83 | 22:59:03 | 83 | 73 | 22:58:01 | 68 | 22:37:02 | 73.05 | 0 | 3.0 | 118 | 0 | 87 | 87 | 88 | 88 |
| 09/01/2026 | 0:00:00 | 244 | 83 | 23:03:05 | 79 | 23:57:04 | 79 | 84 | 23:57:04 | 73 | 23:03:00 | 83.7 | 0 | 0.6 | 94 | 0 | 87 | 86 | 87 | 87 |
| 09/01/2026 | 1:00:00 | 244 | 81 | 0:21:00 | 79 | 0:05:05 | 79 | 84 | 0:06:05 | 79 | 0:20:03 | 83.7 | 0 | 1.0 | 130 | 0 | 86 | 86 | 87 | 87 |
| 09/01/2026 | 2:00:00 | 244 | 80 | 1:57:04 | 77 | 1:42:03 | 80 | 88 | 1:45:02 | 83 | 1:23:00 | 83.4 | 0 | 0.9 | 130 | 0 | 86 | 85 | 86 | 86 |
| 09/01/2026 | 3:00:00 | 244 | 80 | 2:09:05 | 77 | 2:59:05 | 77 | 89 | 2:59:05 | 83 | 2:07:02 | 88.6 | 0 | 1.0 | 129 | 0 | 85 | 85 | 86 | 86 |
| 09/01/2026 | 4:00:00 | 244 | 78 | 3:27:02 | 76 | 3:59:04 | 76 | 92 | 3:58:00 | 89 | 3:00:02 | 91.8 | 0 | 0.6 | 99 | 0 | 85 | 85 | 86 | 85 |
| 09/01/2026 | 5:00:00 | 244 | 76 | 4:35:03 | 75 | 4:59:03 | 75 | 95 | 5:00:00 | 92 | 4:00:01 | 94.9 | 0 | 0.3 | 84 | 0 | 84 | 84 | 85 | 85 |
| 09/01/2026 | 6:00:00 | 244 | 76 | 5:59:05 | 75 | 5:02:00 | 76 | 96 | 5:06:05 | 94 | 5:59:03 | 94.4 | 0 | 1.3 | 101 | 0 | 84 | 84 | 85 | 85 |
| 09/01/2026 | 7:00:00 | 244 | 83 | 6:59:00 | 76 | 6:00:00 | 83 | 94 | 6:00:01 | 80 | 6:58:04 | 80.4 | 0 | 2.1 | 128 | 9 | 84 | 84 | 85 | 84 |
| 09/01/2026 | 8:00:00 | 244 | 90 | 7:58:02 | 83 | 7:00:00 | 90 | 81 | 7:00:01 | 64 | 7:59:03 | 64.66 | 0 | 1.1 | 115 | 27 | 84 | 84 | 84 | 85 |
| 09/01/2026 | 9:00:00 | 244 | 92 | 8:53:03 | 90 | 8:00:01 | 92 | 65 | 8:01:03 | 57 | 8:59:01 | 56.81 | 0 | 1.8 | 159 | 42 | 85 | 86 | 85 | 85 |
| 09/01/2026 | 10:00:00 | 244 | 95 | 9:53:02 | 92 | 9:08:01 | 94 | 60 | 9:08:03 | 52 | 9:53:04 | 55.03 | 0 | 2.4 | 176 | 56 | 87 | 88 | 86 | 86 |
| 09/01/2026 | 11:00:00 | 244 | 98 | 10:56:05 | 94 | 10:03:04 | 96 | 55 | 10:25:00 | 45 | 10:53:01 | 47.63 | 0 | 3.4 | 128 | 65 | 89 | 90 | 87 | 87 |
| 09/01/2026 | 12:00:00 | 244 | 99 | 11:59:04 | 95 | 11:02:05 | 99 | 52 | 11:31:02 | 43 | 11:59:04 | 43.34 | 0 | 3.8 | 146 | 66 | 90 | 91 | 88 | 88 |
| 09/01/2026 | 13:00:00 | 244 | 100 | 12:18:04 | 96 | 12:51:02 | 98 | 48 | 12:03:04 | 42 | 12:18:04 | 42.55 | 0 | 3.7 | 107 | 47 | 91 | 92 | 89 | 89 |
| 09/01/2026 | 14:00:00 | 244 | 100 | 13:43:05 | 97 | 13:55:01 | 98 | 47 | 13:05:05 | 40 | 13:38:03 | 41.88 | 0 | 4.1 | 95 | 49 | 92 | 92 | 90 | 90 |
| 09/01/2026 | 15:00:00 | 244 | 102 | 14:43:05 | 98 | 14:00:01 | 100 | 44 | 14:07:01 | 35 | 14:43:05 | 39.88 | 0 | 4.7 | 132 | 52 | 92 | 92 | 90 | 90 |
| 09/01/2026 | 16:00:00 | 244 | 101 | 15:57:01 | 97 | 15:20:01 | 101 | 44 | 15:20:03 | 35 | 15:47:04 | 37.38 | 0 | 4.3 | 132 | 29 | 92 | 92 | 91 | 91 |
| 09/01/2026 | 17:00:00 | 244 | 101 | 16:01:02 | 97 | 16:28:01 | 100 | 44 | 16:35:02 | 36 | 16:02:00 | 41.25 | 0 | 3.9 | 140 | 16 | 92 | 91 | 91 | 91 |
| 09/01/2026 | 18:00:00 | 244 | 100 | 17:00:05 | 95 | 17:46:03 | 96 | 50 | 17:45:02 | 41 | 17:00:00 | 47.73 | 0 | 3.3 | 136 | 7 | 91 | 91 | 90 | 90 |
| 09/01/2026 | 19:00:00 | 244 | 96 | 18:00:00 | 89 | 18:59:03 | 89 | 65 | 18:56:00 | 48 | 18:02:02 | 62.31 | 0 | 1.4 | 131 | 1 | 90 | 90 | 90 | 90 |
| 09/01/2026 | 20:00:00 | 244 | 90 | 19:26:03 | 88 | 19:59:04 | 88 | 63 | 19:00:05 | 59 | 19:26:01 | 61.1 | 0 | 2.0 | 116 | 0 | 90 | 89 | 90 | 89 |
| 09/01/2026 | 21:00:00 | 244 | 88 | 20:00:00 | 85 | 21:00:00 | 85 | 71 | 20:59:04 | 61 | 20:02:00 | 70.87 | 0 | 1.3 | 145 | 0 | 89 | 88 | 89 | 89 |
| 09/01/2026 | 22:00:00 | 244 | 86 | 21:22:00 | 84 | 21:59:03 | 84 | 72 | 21:58:03 | 68 | 21:17:00 | 71.76 | 0 | 1.7 | 138 | 0 | 88 | 88 | 89 | 88 |
| 09/01/2026 | 23:00:00 | 244 | 85 | 22:06:04 | 83 | 22:27:00 | 84 | 76 | 22:25:05 | 71 | 22:06:02 | 72.34 | 0 | 2.0 | 118 | 0 | 88 | 87 | 88 | 88 |
| 09/02/2026 | 0:00:00 | 245 | 84 | 23:01:03 | 81 | 23:59:03 | 81 | 82 | 23:59:01 | 72 | 23:00:00 | 81.7 | 0 | 1.1 | 112 | 0 | 87 | 87 | 88 | 87 |
| 09/02/2026 | 1:00:00 | 245 | 81 | 0:00:00 | 79 | 0:35:03 | 79 | 89 | 0:58:05 | 82 | 0:00:01 | 88.4 | 0 | 0.2 | 283 | 0 | 87 | 86 | 87 | 87 |
| 09/02/2026 | 2:00:00 | 245 | 81 | 1:55:00 | 79 | 1:00:00 | 81 | 89 | 1:00:03 | 85 | 1:53:03 | 85.1 | 0 | 1.2 | 181 | 0 | 86 | 86 | 87 | 87 |
| 09/02/2026 | 3:00:00 | 245 | 81 | 2:12:02 | 78 | 2:55:01 | 78 | 91 | 2:58:02 | 85 | 2:14:05 | 91.1 | 0 | 0.8 | 205 | 0 | 86 | 85 | 86 | 86 |
| 09/02/2026 | 4:00:00 | 245 | 78 | 3:19:02 | 78 | 3:58:05 | 78 | 92 | 3:59:04 | 91 | 3:22:05 | 91.6 | 0 | 0.2 | 216 | 0 | 85 | 85 | 86 | 86 |
| 09/02/2026 | 5:00:00 | 245 | 78 | 4:00:01 | 77 | 4:58:03 | 77 | 94 | 5:00:00 | 92 | 4:02:00 | 94.2 | 0 | 0.3 | 100 | 0 | 85 | 85 | 86 | 86 |
| 09/02/2026 | 6:00:00 | 245 | 77 | 5:00:02 | 76 | 5:49:03 | 77 | 96 | 5:38:02 | 94 | 5:03:04 | 95.3 | 0 | 1.1 | 91 | 0 | 85 | 84 | 85 | 85 |
| 09/02/2026 | 7:00:00 | 245 | 83 | 6:59:05 | 77 | 6:00:00 | 83 | 95 | 6:03:02 | 84 | 7:00:00 | 84 | 0 | 1.6 | 121 | 8 | 84 | 84 | 85 | 85 |
| 09/02/2026 | 8:00:00 | 245 | 89 | 7:52:05 | 83 | 7:00:00 | 87 | 84 | 7:01:04 | 69 | 7:53:00 | 70.8 | 0 | 0.9 | 17 | 26 | 85 | 85 | 85 | 85 |
| 09/02/2026 | 9:00:00 | 245 | 90 | 8:21:05 | 87 | 8:00:00 | 90 | 72 | 8:00:02 | 64 | 8:55:01 | 64.46 | 0 | 2.6 | 261 | 41 | 86 | 86 | 85 | 86 |
| 09/02/2026 | 10:00:00 | 245 | 94 | 9:27:04 | 90 | 9:00:00 | 93 | 65 | 9:00:03 | 57 | 9:28:02 | 59.08 | 0 | 2.5 | 172 | 55 | 87 | 88 | 86 | 86 |
| 09/02/2026 | 11:00:00 | 245 | 98 | 10:59:03 | 93 | 10:01:05 | 98 | 61 | 10:17:00 | 50 | 10:59:05 | 52.09 | 0 | 2.4 | 141 | 67 | 89 | 90 | 87 | 88 |
| 09/02/2026 | 12:00:00 | 245 | 99 | 11:56:05 | 95 | 11:34:04 | 97 | 55 | 11:08:03 | 48 | 11:58:01 | 49.75 | 0 | 4.0 | 174 | 68 | 91 | 92 | 88 | 89 |
| 09/02/2026 | 13:00:00 | 245 | 100 | 12:59:05 | 95 | 12:22:05 | 100 | 54 | 12:29:00 | 44 | 12:56:05 | 47.21 | 0 | 3.9 | 164 | 64 | 92 | 93 | 90 | 90 |
| 09/02/2026 | 14:00:00 | 245 | 100 | 13:00:01 | 96 | 13:45:05 | 97 | 51 | 13:10:04 | 45 | 13:25:05 | 49.89 | 0 | 4.8 | 139 | 45 | 93 | 93 | 91 | 91 |
| 09/02/2026 | 15:00:00 | 245 | 100 | 14:52:00 | 96 | 14:35:02 | 99 | 53 | 14:04:02 | 43 | 14:48:05 | 43.55 | 0 | 4.8 | 139 | 44 | 93 | 93 | 91 | 91 |
| 09/02/2026 | 16:00:00 | 245 | 100 | 15:14:02 | 90 | 16:00:00 | 90 | 60 | 16:00:00 | 42 | 15:15:02 | 59.77 | 0 | 5.8 | 175 | 27 | 93 | 93 | 91 | 91 |
| 09/02/2026 | 17:00:00 | 245 | 90 | 16:58:03 | 89 | 16:22:04 | 90 | 62 | 16:23:02 | 59 | 17:00:00 | 59.37 | 0 | 2.5 | 214 | 4 | 92 | 92 | 91 | 91 |
| 09/02/2026 | 18:00:00 | 245 | 90 | 17:01:02 | 89 | 17:20:04 | 89 | 63 | 17:17:04 | 58 | 17:22:04 | 62.03 | 0 | 0.6 | 255 | 4 | 91 | 91 | 91 | 91 |
| 09/02/2026 | 19:00:00 | 245 | 89 | 18:00:01 | 85 | 18:53:01 | 85 | 71 | 18:44:00 | 62 | 18:00:02 | 70.46 | 0 | 0.3 | 56 | 1 | 91 | 90 | 90 | 90 |
| 09/02/2026 | 20:00:00 | 245 | 85 | 19:00:00 | 83 | 19:59:04 | 83 | 79 | 19:58:03 | 71 | 19:00:01 | 79.04 | 0 | 0.5 | 62 | 0 | 90 | 89 | 90 | 90 |
| 09/02/2026 | 21:00:00 | 245 | 83 | 20:06:03 | 82 | 20:56:02 | 82 | 85 | 20:48:03 | 79 | 20:02:03 | 81.2 | 0 | 1.1 | 110 | 0 | 89 | 89 | 89 | 89 |
| 09/02/2026 | 22:00:00 | 245 | 82 | 21:08:02 | 81 | 21:59:03 | 81 | 85 | 21:48:03 | 80 | 21:02:00 | 84.8 | 0 | 0.7 | 82 | 0 | 88 | 88 | 89 | 89 |
| 09/02/2026 | 23:00:00 | 245 | 81 | 22:44:02 | 80 | 22:59:05 | 80 | 89 | 22:59:04 | 85 | 22:00:03 | 88.5 | 0 | 1.0 | 129 | 0 | 88 | 87 | 88 | 88 |
| 09/03/2026 | 0:00:00 | 246 | 81 | 23:55:00 | 79 | 23:13:00 | 81 | 90 | 23:26:02 | 85 | 23:59:03 | 85.4 | 0 | 1.5 | 105 | 0 | 87 | 87 | 88 | 88 |
| 09/03/2026 | 1:00:00 | 246 | 81 | 0:03:01 | 80 | 0:52:03 | 80 | 88 | 0:59:02 | 85 | 0:10:05 | 87.5 | 0 | 1.6 | 122 | 0 | 87 | 87 | 87 | 87 |
| 09/03/2026 | 2:00:00 | 246 | 80 | 1:00:00 | 78 | 1:53:02 | 79 | 92 | 1:55:03 | 87 | 1:01:02 | 91.1 | 0 | 1.0 | 118 | 0 | 86 | 86 | 87 | 87 |
| 09/03/2026 | 3:00:00 | 246 | 79 | 2:23:03 | 78 | 2:37:05 | 78 | 92 | 2:57:01 | 90 | 2:26:00 | 91.7 | 0 | 1.3 | 183 | 0 | 86 | 86 | 87 | 87 |
| 09/03/2026 | 4:00:00 | 246 | 79 | 3:13:01 | 77 | 3:35:05 | 78 | 94 | 3:39:00 | 91 | 3:21:01 | 93.7 | 0 | 1.2 | 168 | 0 | 86 | 85 | 86 | 86 |
| 09/03/2026 | 5:00:00 | 246 | 78 | 4:00:01 | 76 | 5:00:00 | 76 | 96 | 4:55:02 | 94 | 4:08:01 | 95.7 | 0 | 0.3 | 79 | 0 | 85 | 85 | 86 | 86 |
| 09/03/2026 | 6:00:00 | 246 | 76 | 5:59:04 | 75 | 5:12:00 | 76 | 97 | 5:41:04 | 96 | 5:03:01 | 97.2 | 0 | 0.5 | 96 | 0 | 85 | 85 | 86 | 85 |
| 09/03/2026 | 7:00:00 | 246 | 82 | 6:59:04 | 76 | 6:00:01 | 82 | 97 | 6:00:03 | 86 | 6:59:02 | 86.2 | 0 | 0.2 | 338 | 9 | 85 | 85 | 85 | 85 |
| 09/03/2026 | 8:00:00 | 246 | 88 | 7:53:01 | 82 | 7:00:00 | 88 | 87 | 7:02:05 | 66 | 7:58:04 | 67.71 | 0 | 3.6 | 322 | 26 | 85 | 85 | 85 | 85 |
| 09/03/2026 | 9:00:00 | 246 | 91 | 9:00:00 | 88 | 8:00:00 | 91 | 68 | 8:00:01 | 61 | 8:53:02 | 62.95 | 0 | 5.4 | 337 | 41 | 86 | 86 | 86 | 86 |
| 09/03/2026 | 10:00:00 | 246 | 94 | 9:56:04 | 91 | 9:09:01 | 94 | 63 | 9:09:05 | 55 | 9:56:05 | 57.55 | 0 | 2.9 | 11 | 54 | 87 | 88 | 86 | 87 |
| 09/03/2026 | 11:00:00 | 246 | 98 | 10:56:05 | 93 | 10:02:02 | 98 | 60 | 10:08:00 | 48 | 10:57:00 | 49.68 | 0 | 2.9 | 105 | 65 | 89 | 90 | 87 | 88 |
| 09/03/2026 | 12:00:00 | 246 | 101 | 11:50:05 | 96 | 11:59:02 | 96 | 52 | 11:20:03 | 44 | 11:35:02 | 50.32 | 0 | 2.7 | 96 | 69 | 91 | 92 | 88 | 89 |
| 09/03/2026 | 13:00:00 | 246 | 99 | 12:04:01 | 96 | 13:00:00 | 96 | 52 | 12:00:01 | 44 | 12:37:04 | 48.37 | 0 | 2.3 | 115 | 32 | 92 | 92 | 90 | 90 |
| 09/03/2026 | 14:00:00 | 246 | 102 | 13:52:05 | 96 | 13:03:01 | 102 | 52 | 13:09:00 | 38 | 13:59:04 | 38.89 | 0 | 3.0 | 144 | 55 | 92 | 93 | 90 | 90 |
| 09/03/2026 | 15:00:00 | 246 | 102 | 14:52:01 | 99 | 14:27:02 | 102 | 45 | 14:19:00 | 38 | 14:49:01 | 39.5 | 0 | 3.3 | 158 | 58 | 93 | 93 | 91 | 91 |
| 09/03/2026 | 16:00:00 | 246 | 103 | 15:05:01 | 86 | 15:58:00 | 86 | 68 | 15:59:03 | 38 | 15:05:02 | 67.13 | 0 | 0.5 | 119 | 38 | 94 | 93 | 91 | 92 |
| 09/03/2026 | 17:00:00 | 246 | 89 | 16:59:04 | 86 | 16:00:02 | 89 | 68 | 16:16:03 | 63 | 16:58:00 | 63.79 | 0 | 2.2 | 134 | 6 | 93 | 92 | 92 | 92 |
| 09/03/2026 | 18:00:00 | 246 | 89 | 17:10:00 | 88 | 17:51:03 | 88 | 64 | 17:00:01 | 61 | 17:13:02 | 63.56 | 0 | 2.2 | 329 | 3 | 92 | 92 | 91 | 91 |
| 09/03/2026 | 19:00:00 | 246 | 88 | 18:00:03 | 86 | 18:58:02 | 86 | 71 | 18:54:00 | 63 | 18:01:05 | 69.36 | 0 | 1.6 | 126 | 0 | 91 | 91 | 91 | 91 |
| 09/03/2026 | 20:00:00 | 246 | 86 | 19:02:02 | 83 | 19:59:04 | 83 | 78 | 20:00:00 | 69 | 19:03:00 | 78.05 | 0 | 1.7 | 186 | 0 | 90 | 90 | 90 | 90 |
| 09/03/2026 | 21:00:00 | 246 | 83 | 20:00:00 | 81 | 20:52:03 | 81 | 84 | 20:49:04 | 78 | 20:00:00 | 83.6 | 0 | 1.1 | 70 | 0 | 89 | 89 | 90 | 89 |
| 09/03/2026 | 22:00:00 | 246 | 81 | 21:00:01 | 79 | 21:57:00 | 79 | 88 | 21:59:05 | 84 | 21:00:02 | 88.3 | 0 | 0.8 | 38 | 0 | 89 | 88 | 89 | 89 |
| 09/03/2026 | 23:00:00 | 246 | 80 | 22:19:04 | 79 | 22:00:00 | 79 | 89 | 22:12:02 | 88 | 22:00:05 | 88.5 | 0 | 1.7 | 85 | 0 | 88 | 88 | 89 | 88 |
| 09/04/2026 | 0:00:00 | 247 | 80 | 23:35:00 | 79 | 23:18:03 | 79 | 91 | 0:00:00 | 88 | 23:01:04 | 90.9 | 0 | 1.8 | 131 | 0 | 87 | 87 | 88 | 88 |
| 09/04/2026 | 1:00:00 | 247 | 79 | 0:06:05 | 78 | 0:59:04 | 78 | 92 | 1:00:00 | 91 | 0:29:00 | 91.7 | 0 | 1.3 | 162 | 0 | 87 | 87 | 88 | 87 |
| 09/04/2026 | 2:00:00 | 247 | 78 | 1:46:01 | 77 | 1:59:05 | 77 | 92 | 1:17:05 | 89 | 1:50:01 | 91.3 | 0 | 1.9 | 188 | 0 | 86 | 86 | 87 | 87 |
| 09/04/2026 | 3:00:00 | 247 | 78 | 2:13:05 | 77 | 2:48:00 | 77 | 93 | 2:53:02 | 91 | 2:14:04 | 92.2 | 0 | 1.1 | 197 | 0 | 86 | 86 | 87 | 87 |
| 09/04/2026 | 4:00:00 | 247 | 78 | 3:29:03 | 77 | 3:41:04 | 77 | 93 | 3:45:01 | 92 | 3:26:05 | 92.9 | 0 | 0.8 | 156 | 0 | 86 | 85 | 86 | 86 |
| 09/04/2026 | 5:00:00 | 247 | 78 | 4:21:04 | 77 | 4:32:00 | 77 | 93 | 4:37:04 | 92 | 4:25:02 | 92.8 | 0 | 1.0 | 202 | 0 | 85 | 85 | 86 | 86 |
| 09/04/2026 | 6:00:00 | 247 | 78 | 5:08:01 | 77 | 5:58:02 | 77 | 95 | 5:59:05 | 93 | 5:00:03 | 95.2 | 0 | 0.3 | 16 | 0 | 85 | 85 | 86 | 86 |
| 09/04/2026 | 7:00:00 | 247 | 79 | 7:00:00 | 77 | 6:00:01 | 79 | 95 | 6:05:03 | 89 | 6:59:03 | 89.3 | 0 | 0.7 | 8 | 5 | 85 | 85 | 86 | 85 |
| 09/04/2026 | 8:00:00 | 247 | 86 | 7:58:05 | 79 | 7:00:00 | 85 | 89 | 7:00:00 | 75 | 7:59:03 | 76.1 | 0 | 1.1 | 7 | 20 | 85 | 85 | 85 | 86 |
| 09/04/2026 | 9:00:00 | 247 | 89 | 8:47:05 | 85 | 8:00:02 | 88 | 77 | 8:01:03 | 70 | 8:48:03 | 72.79 | 0 | 2.4 | 360 | 27 | 86 | 86 | 86 | 86 |
| 09/04/2026 | 10:00:00 | 247 | 93 | 9:59:04 | 88 | 9:00:01 | 93 | 73 | 9:12:00 | 61 | 9:34:02 | 61.28 | 0 | 2.5 | 6 | 48 | 87 | 88 | 86 | 87 |
| 09/04/2026 | 11:00:00 | 247 | 97 | 10:54:01 | 92 | 10:02:00 | 96 | 65 | 10:08:00 | 50 | 10:55:00 | 51.53 | 0 | 2.8 | 21 | 62 | 89 | 90 | 87 | 88 |
| 09/04/2026 | 12:00:00 | 247 | 98 | 11:58:03 | 95 | 11:47:04 | 98 | 54 | 11:38:03 | 47 | 11:59:01 | 47.57 | 0 | 2.8 | 85 | 49 | 91 | 91 | 88 | 89 |
| 09/04/2026 | 13:00:00 | 247 | 101 | 12:59:03 | 96 | 12:08:01 | 101 | 52 | 12:10:02 | 39 | 12:59:04 | 38.74 | 0 | 2.7 | 74 | 48 | 91 | 92 | 89 | 90 |
| 09/04/2026 | 14:00:00 | 247 | 102 | 13:10:05 | 98 | 14:00:00 | 98 | 45 | 13:17:03 | 38 | 13:36:03 | 42.79 | 0 | 3.4 | 59 | 39 | 92 | 93 | 90 | 90 |
| 09/04/2026 | 15:00:00 | 247 | 98 | 14:00:00 | 81 | 15:00:00 | 81 | 81 | 14:59:03 | 42 | 14:00:02 | 81.1 | 0 | 6.8 | 156 | 15 | 92 | 92 | 91 | 91 |
| 09/04/2026 | 16:00:00 | 247 | 81 | 16:00:00 | 79 | 15:20:05 | 81 | 86 | 15:26:01 | 81 | 15:00:03 | 82.3 | 0.02 | 4.5 | 164 | 4 | 91 | 90 | 90 | 90 |
| 09/04/2026 | 17:00:00 | 247 | 83 | 16:59:01 | 81 | 16:14:04 | 83 | 88 | 16:41:01 | 81 | 17:00:00 | 80.7 | 0 | 1.3 | 56 | 7 | 90 | 90 | 90 | 90 |
| 09/04/2026 | 18:00:00 | 247 | 84 | 17:56:01 | 83 | 17:00:00 | 84 | 84 | 17:16:02 | 79 | 17:51:01 | 81.2 | 0 | 1.1 | 318 | 5 | 89 | 89 | 89 | 89 |
| 09/04/2026 | 19:00:00 | 247 | 84 | 18:00:02 | 83 | 18:42:01 | 83 | 89 | 19:00:00 | 81 | 18:00:00 | 88.7 | 0 | 0.3 | 110 | 0 | 89 | 89 | 89 | 89 |
| 09/04/2026 | 20:00:00 | 247 | 83 | 19:00:03 | 82 | 19:41:04 | 82 | 91 | 19:47:03 | 89 | 19:00:00 | 90.5 | 0 | 0.5 | 145 | 0 | 88 | 88 | 89 | 88 |
| 09/04/2026 | 21:00:00 | 247 | 82 | 20:52:01 | 81 | 20:38:03 | 82 | 93 | 20:39:01 | 90 | 20:53:01 | 90.9 | 0 | 1.5 | 212 | 0 | 88 | 87 | 88 | 88 |
| 09/04/2026 | 22:00:00 | 247 | 82 | 21:00:02 | 80 | 21:59:04 | 80 | 91 | 21:59:02 | 87 | 21:39:00 | 91.2 | 0 | 3.2 | 203 | 0 | 87 | 87 | 88 | 87 |
| 09/04/2026 | 23:00:00 | 247 | 80 | 22:00:01 | 78 | 23:00:00 | 78 | 94 | 22:45:01 | 91 | 22:00:00 | 93.4 | 0 | 2.6 | 197 | 0 | 87 | 86 | 87 | 87 |
| 09/05/2026 | 0:00:00 | 248 | 78 | 23:00:04 | 77 | 23:57:03 | 77 | 95 | 23:47:04 | 93 | 23:03:05 | 94.3 | 0 | 1.5 | 147 | 0 | 86 | 86 | 87 | 87 |
| 09/05/2026 | 1:00:00 | 248 | 77 | 0:01:01 | 76 | 0:57:05 | 76 | 97 | 0:59:01 | 94 | 0:03:00 | 97 | 0 | 0.3 | 30 | 0 | 86 | 85 | 86 | 86 |
| 09/05/2026 | 2:00:00 | 248 | 76 | 1:38:02 | 75 | 1:15:02 | 76 | 98 | 1:59:01 | 97 | 1:02:02 | 98.3 | 0 | 0.1 | 181 | 0 | 85 | 85 | 86 | 86 |
| 09/05/2026 | 3:00:00 | 248 | 76 | 2:00:01 | 75 | 2:23:03 | 76 | 99 | 2:58:04 | 98 | 2:08:05 | 99 | 0 | 0.1 | 208 | 0 | 85 | 85 | 86 | 85 |
| 09/05/2026 | 4:00:00 | 248 | 76 | 3:31:02 | 76 | 3:06:02 | 76 | 99 | 3:07:02 | 99 | 3:55:00 | 98.7 | 0 | 0.6 | 80 | 0 | 84 | 84 | 85 | 85 |
| 09/05/2026 | 5:00:00 | 248 | 76 | 4:18:05 | 75 | 4:59:04 | 75 | 99 | 4:49:02 | 99 | 4:00:02 | 99.3 | 0 | 0.3 | 93 | 0 | 84 | 84 | 85 | 85 |
| 09/05/2026 | 6:00:00 | 248 | 76 | 5:59:05 | 75 | 5:30:04 | 76 | 100 | 5:59:05 | 99 | 5:03:03 | 99.8 | 0 | 0.3 | 195 | 0 | 84 | 84 | 85 | 85 |
| 09/05/2026 | 7:00:00 | 248 | 79 | 6:56:02 | 75 | 6:00:03 | 79 | 100 | 6:01:02 | 95 | 6:59:05 | 95.2 | 0 | 0.8 | 221 | 9 | 84 | 84 | 84 | 84 |
| 09/05/2026 | 8:00:00 | 248 | 85 | 7:56:01 | 79 | 7:00:00 | 85 | 95 | 7:00:02 | 77 | 7:59:00 | 77.44 | 0 | 0.8 | 210 | 22 | 84 | 84 | 84 | 84 |
| 09/05/2026 | 9:00:00 | 248 | 90 | 8:59:00 | 85 | 8:00:02 | 90 | 80 | 8:02:05 | 62 | 8:59:01 | 63.98 | 0 | 1.8 | 301 | 41 | 85 | 86 | 85 | 85 |
| 09/05/2026 | 10:00:00 | 248 | 93 | 9:53:05 | 90 | 9:07:03 | 92 | 69 | 9:12:05 | 54 | 9:54:00 | 56.3 | 0 | 3.6 | 351 | 53 | 87 | 87 | 85 | 86 |
| 09/05/2026 | 11:00:00 | 248 | 99 | 10:58:03 | 92 | 10:00:03 | 98 | 58 | 10:02:00 | 45 | 10:58:05 | 47.17 | 0 | 2.7 | 54 | 63 | 88 | 89 | 86 | 87 |
| 09/05/2026 | 12:00:00 | 248 | 99 | 11:28:04 | 96 | 11:49:04 | 97 | 52 | 11:50:01 | 45 | 11:29:02 | 48.35 | 0 | 3.0 | 48 | 54 | 90 | 91 | 87 | 88 |
| 09/05/2026 | 13:00:00 | 248 | 100 | 12:21:01 | 97 | 12:00:05 | 97 | 50 | 12:00:04 | 43 | 12:49:00 | 47.18 | 0 | 3.0 | 27 | 47 | 91 | 91 | 89 | 89 |
| 09/05/2026 | 14:00:00 | 248 | 103 | 13:51:00 | 97 | 13:00:00 | 102 | 48 | 13:05:02 | 38 | 13:51:02 | 41.14 | 0 | 3.1 | 67 | 51 | 92 | 92 | 89 | 90 |
| 09/05/2026 | 15:00:00 | 248 | 104 | 14:14:03 | 101 | 14:28:03 | 103 | 42 | 14:00:00 | 34 | 14:37:02 | 36.68 | 0 | 3.9 | 97 | 55 | 92 | 92 | 90 | 90 |
| 09/05/2026 | 16:00:00 | 248 | 104 | 15:15:01 | 99 | 15:47:02 | 100 | 46 | 15:58:05 | 36 | 15:00:03 | 44.49 | 0 | 5.1 | 131 | 27 | 92 | 92 | 90 | 91 |
| 09/05/2026 | 17:00:00 | 248 | 101 | 16:47:05 | 100 | 16:00:01 | 101 | 45 | 16:01:00 | 38 | 16:59:04 | 38.23 | 0 | 4.8 | 148 | 16 | 92 | 92 | 91 | 91 |
| 09/05/2026 | 18:00:00 | 248 | 101 | 17:01:01 | 97 | 17:59:02 | 97 | 47 | 17:59:05 | 38 | 17:02:04 | 46.9 | 0 | 2.6 | 144 | 8 | 91 | 91 | 91 | 90 |
| 09/05/2026 | 19:00:00 | 248 | 97 | 18:00:00 | 88 | 18:59:04 | 88 | 65 | 19:00:00 | 47 | 18:00:00 | 65.06 | 0 | 6.0 | 154 | 0 | 91 | 90 | 90 | 90 |
| 09/05/2026 | 20:00:00 | 248 | 88 | 19:00:00 | 87 | 19:59:03 | 87 | 70 | 20:00:00 | 65 | 19:00:00 | 70.05 | 0 | 4.5 | 170 | 0 | 90 | 89 | 90 | 89 |
| 09/05/2026 | 21:00:00 | 248 | 87 | 20:00:01 | 84 | 21:00:00 | 84 | 74 | 21:00:00 | 70 | 20:04:04 | 73.69 | 0 | 2.9 | 191 | 0 | 89 | 88 | 89 | 89 |
| 09/05/2026 | 22:00:00 | 248 | 84 | 21:00:00 | 82 | 22:00:00 | 82 | 80 | 22:00:00 | 74 | 21:00:01 | 79.7 | 0 | 1.7 | 182 | 0 | 88 | 88 | 89 | 88 |
| 09/05/2026 | 23:00:00 | 248 | 83 | 22:00:00 | 81 | 22:58:05 | 81 | 83 | 22:59:05 | 80 | 22:00:02 | 83 | 0 | 1.0 | 149 | 0 | 88 | 87 | 88 | 88 |
| 09/06/2026 | 0:00:00 | 249 | 82 | 23:17:04 | 79 | 23:55:01 | 80 | 89 | 23:57:05 | 83 | 23:00:00 | 88.1 | 0 | 0.8 | 120 | 0 | 87 | 87 | 88 | 87 |
| 09/06/2026 | 1:00:00 | 249 | 80 | 0:00:00 | 79 | 0:57:04 | 79 | 91 | 0:59:04 | 87 | 0:07:04 | 91.1 | 0 | 0.4 | 85 | 0 | 87 | 86 | 87 | 87 |
| 09/06/2026 | 2:00:00 | 249 | 79 | 1:00:01 | 78 | 1:57:02 | 78 | 93 | 1:58:01 | 91 | 1:00:01 | 92.8 | 0 | 0.1 | 64 | 0 | 86 | 86 | 87 | 87 |
| 09/06/2026 | 3:00:00 | 249 | 78 | 2:24:03 | 77 | 2:50:03 | 77 | 95 | 2:56:00 | 93 | 2:01:02 | 94.7 | 0 | 0.2 | 97 | 0 | 86 | 85 | 86 | 86 |
| 09/06/2026 | 4:00:00 | 249 | 78 | 3:57:00 | 77 | 3:14:04 | 78 | 96 | 3:51:04 | 94 | 3:06:05 | 95.8 | 0 | 0.8 | 143 | 0 | 85 | 85 | 86 | 86 |
| Average | 87.58 | 84.51 | 86.03 | 74.85 | 67.58 | 71.16 | 0 | 2.18 | 18.21 | 87.65 | 87.61 | 87.35 | 87.36 | |||||||
| Total | 0.02 |